Archival Weather

Luke Afb

Glendale, Arizona (KLUF)

Report from: Friday, April 19, 2024 1:55 AM MST
Current time: Monday, June 24, 2024 3:46 AM MST

Current weather – Weather history – Daily summaries
Weather forecast

Temperature18.4°C (65.1°F)
Dew point1.4°C (34.5°F)
Winds 6 kts (3.1 m/s, 6.9 mph) North-Northwest (330°)
Visibility10 mi. (16.1 km)
Clouds Sky clear
Altimeter29.82 in.Hg (1010 mB)
Relative humidity32 %
Density altitude657 ft. (200 m)
Sea-level pressure100.9 kPa (1009 mB, 29.79 in.Hg)
Remarks Fully automated report
System requires maintenance
Automated weather observing station with precipitation discriminator
Pressure falling more quickly
Flight conditions Visual Meteorological Conditions
Raw dataKLUF 190855Z AUTO 33006KT 10SM CLR 18/01 A2982 RMK AO2 SLP087 T01840014 58006 $
An error has occurred. This application may no longer respond until reloaded. Reload 🗙